sensor_id;sensor_type;location;lat;lon;timestamp;temperature;humidity
14985;DHT22;7588;62.368;25.902;2023-07-30T00:01:33;14.10;99.90
14985;DHT22;7588;62.368;25.902;2023-07-30T00:03:58;14.10;99.90
14985;DHT22;7588;62.368;25.902;2023-07-30T00:06:24;14.20;99.90
14985;DHT22;7588;62.368;25.902;2023-07-30T00:08:50;14.20;99.90
14985;DHT22;7588;62.368;25.902;2023-07-30T00:11:16;14.20;99.90
14985;DHT22;7588;62.368;25.902;2023-07-30T00:13:42;14.20;99.90
14985;DHT22;7588;62.368;25.902;2023-07-30T00:16:08;14.20;99.90
14985;DHT22;7588;62.368;25.902;2023-07-30T00:18:33;14.20;99.90
14985;DHT22;7588;62.368;25.902;2023-07-30T00:20:59;14.30;99.90
14985;DHT22;7588;62.368;25.902;2023-07-30T00:23:25;14.20;99.90
14985;DHT22;7588;62.368;25.902;2023-07-30T00:25:51;14.20;99.90
14985;DHT22;7588;62.368;25.902;2023-07-30T00:28:16;14.20;99.90
14985;DHT22;7588;62.368;25.902;2023-07-30T00:30:43;14.20;99.90
14985;DHT22;7588;62.368;25.902;2023-07-30T00:33:08;14.20;99.90
14985;DHT22;7588;62.368;25.902;2023-07-30T00:35:34;14.20;99.90
14985;DHT22;7588;62.368;25.902;2023-07-30T00:38:00;14.20;99.90
14985;DHT22;7588;62.368;25.902;2023-07-30T00:40:25;14.10;99.90
14985;DHT22;7588;62.368;25.902;2023-07-30T00:42:51;14.20;99.90
14985;DHT22;7588;62.368;25.902;2023-07-30T00:45:17;14.10;99.90
14985;DHT22;7588;62.368;25.902;2023-07-30T00:47:43;14.10;99.90
14985;DHT22;7588;62.368;25.902;2023-07-30T00:50:09;14.10;99.90
14985;DHT22;7588;62.368;25.902;2023-07-30T00:52:36;14.10;99.90
14985;DHT22;7588;62.368;25.902;2023-07-30T00:55:03;14.10;99.90
14985;DHT22;7588;62.368;25.902;2023-07-30T00:57:29;14.10;99.90
14985;DHT22;7588;62.368;25.902;2023-07-30T00:59:56;14.10;99.90
14985;DHT22;7588;62.368;25.902;2023-07-30T01:02:22;14.10;99.90
14985;DHT22;7588;62.368;25.902;2023-07-30T01:04:49;14.10;99.90
14985;DHT22;7588;62.368;25.902;2023-07-30T01:07:15;14.10;99.90
14985;DHT22;7588;62.368;25.902;2023-07-30T01:09:41;14.10;99.90
14985;DHT22;7588;62.368;25.902;2023-07-30T01:12:08;14.10;99.90
14985;DHT22;7588;62.368;25.902;2023-07-30T01:14:35;14.10;99.90
14985;DHT22;7588;62.368;25.902;2023-07-30T01:17:04;14.10;99.90
14985;DHT22;7588;62.368;25.902;2023-07-30T01:19:29;14.10;99.90
14985;DHT22;7588;62.368;25.902;2023-07-30T01:21:56;14.10;99.90
14985;DHT22;7588;62.368;25.902;2023-07-30T01:24:22;14.10;99.90
14985;DHT22;7588;62.368;25.902;2023-07-30T01:26:56;14.10;99.90
14985;DHT22;7588;62.368;25.902;2023-07-30T01:32:07;14.10;99.90
14985;DHT22;7588;62.368;25.902;2023-07-30T01:34:37;14.10;99.90
14985;DHT22;7588;62.368;25.902;2023-07-30T01:37:09;14.10;99.90
14985;DHT22;7588;62.368;25.902;2023-07-30T01:39:37;14.20;99.90
14985;DHT22;7588;62.368;25.902;2023-07-30T01:42:04;14.20;99.90
14985;DHT22;7588;62.368;25.902;2023-07-30T01:44:30;14.20;99.90
14985;DHT22;7588;62.368;25.902;2023-07-30T01:46:55;14.20;99.90
14985;DHT22;7588;62.368;25.902;2023-07-30T01:49:21;14.20;99.90
14985;DHT22;7588;62.368;25.902;2023-07-30T01:51:48;14.20;99.90
14985;DHT22;7588;62.368;25.902;2023-07-30T01:54:13;14.20;99.90
14985;DHT22;7588;62.368;25.902;2023-07-30T01:56:39;14.20;99.90
14985;DHT22;7588;62.368;25.902;2023-07-30T01:59:05;14.20;99.90
14985;DHT22;7588;62.368;25.902;2023-07-30T02:01:30;14.20;99.90
14985;DHT22;7588;62.368;25.902;2023-07-30T02:03:56;14.20;99.90
14985;DHT22;7588;62.368;25.902;2023-07-30T02:06:22;14.20;99.90
14985;DHT22;7588;62.368;25.902;2023-07-30T02:08:47;14.20;99.90
14985;DHT22;7588;62.368;25.902;2023-07-30T02:11:13;14.20;99.90
14985;DHT22;7588;62.368;25.902;2023-07-30T02:13:39;14.20;99.90
14985;DHT22;7588;62.368;25.902;2023-07-30T02:16:04;14.20;99.90
14985;DHT22;7588;62.368;25.902;2023-07-30T02:18:30;14.10;99.90
14985;DHT22;7588;62.368;25.902;2023-07-30T02:20:56;14.10;99.90
14985;DHT22;7588;62.368;25.902;2023-07-30T02:23:21;14.00;99.90
14985;DHT22;7588;62.368;25.902;2023-07-30T02:25:47;14.00;99.90
14985;DHT22;7588;62.368;25.902;2023-07-30T02:28:13;14.10;99.90
14985;DHT22;7588;62.368;25.902;2023-07-30T02:30:38;14.10;99.90
14985;DHT22;7588;62.368;25.902;2023-07-30T02:33:04;14.20;99.90
14985;DHT22;7588;62.368;25.902;2023-07-30T02:35:30;14.20;99.90
14985;DHT22;7588;62.368;25.902;2023-07-30T02:37:55;14.20;99.90
14985;DHT22;7588;62.368;25.902;2023-07-30T02:40:21;14.20;99.90
14985;DHT22;7588;62.368;25.902;2023-07-30T02:42:47;14.30;99.90
14985;DHT22;7588;62.368;25.902;2023-07-30T02:45:12;14.30;99.90
14985;DHT22;7588;62.368;25.902;2023-07-30T02:47:38;14.30;99.90
14985;DHT22;7588;62.368;25.902;2023-07-30T02:50:04;14.30;99.90
14985;DHT22;7588;62.368;25.902;2023-07-30T02:52:31;14.30;99.90
14985;DHT22;7588;62.368;25.902;2023-07-30T02:54:57;14.30;99.90
14985;DHT22;7588;62.368;25.902;2023-07-30T02:57:22;14.30;99.90
14985;DHT22;7588;62.368;25.902;2023-07-30T02:59:48;14.40;99.90
14985;DHT22;7588;62.368;25.902;2023-07-30T03:02:14;14.40;99.90
14985;DHT22;7588;62.368;25.902;2023-07-30T03:04:40;14.50;99.90
14985;DHT22;7588;62.368;25.902;2023-07-30T03:07:06;14.50;99.90
14985;DHT22;7588;62.368;25.902;2023-07-30T03:09:31;14.50;99.90
14985;DHT22;7588;62.368;25.902;2023-07-30T03:11:58;14.50;99.90
14985;DHT22;7588;62.368;25.902;2023-07-30T03:14:24;14.50;99.90
14985;DHT22;7588;62.368;25.902;2023-07-30T03:16:50;14.50;99.90
14985;DHT22;7588;62.368;25.902;2023-07-30T03:19:15;14.50;99.90
14985;DHT22;7588;62.368;25.902;2023-07-30T03:21:41;14.60;99.90
14985;DHT22;7588;62.368;25.902;2023-07-30T03:24:07;14.60;99.90
14985;DHT22;7588;62.368;25.902;2023-07-30T03:26:33;14.60;99.90
14985;DHT22;7588;62.368;25.902;2023-07-30T03:28:59;14.60;99.90
14985;DHT22;7588;62.368;25.902;2023-07-30T03:31:25;14.70;99.90
14985;DHT22;7588;62.368;25.902;2023-07-30T03:33:50;14.70;99.90
14985;DHT22;7588;62.368;25.902;2023-07-30T03:36:16;14.70;99.90
14985;DHT22;7588;62.368;25.902;2023-07-30T03:38:42;14.80;99.90
14985;DHT22;7588;62.368;25.902;2023-07-30T03:41:09;14.80;99.90
14985;DHT22;7588;62.368;25.902;2023-07-30T03:43:35;14.80;99.90
14985;DHT22;7588;62.368;25.902;2023-07-30T03:46:01;14.90;99.90
14985;DHT22;7588;62.368;25.902;2023-07-30T03:48:27;14.90;99.90
14985;DHT22;7588;62.368;25.902;2023-07-30T03:50:54;14.90;99.90
14985;DHT22;7588;62.368;25.902;2023-07-30T03:53:19;15.00;99.90
14985;DHT22;7588;62.368;25.902;2023-07-30T03:55:45;15.00;99.90
14985;DHT22;7588;62.368;25.902;2023-07-30T03:58:11;15.10;99.90
14985;DHT22;7588;62.368;25.902;2023-07-30T04:00:37;15.10;99.90
14985;DHT22;7588;62.368;25.902;2023-07-30T04:03:03;15.20;99.90
14985;DHT22;7588;62.368;25.902;2023-07-30T04:05:29;15.30;99.90
14985;DHT22;7588;62.368;25.902;2023-07-30T04:07:55;15.40;99.90
14985;DHT22;7588;62.368;25.902;2023-07-30T04:10:21;15.50;99.90
14985;DHT22;7588;62.368;25.902;2023-07-30T04:12:47;15.60;99.90
14985;DHT22;7588;62.368;25.902;2023-07-30T04:15:12;15.70;99.90
14985;DHT22;7588;62.368;25.902;2023-07-30T04:17:38;15.70;99.90
14985;DHT22;7588;62.368;25.902;2023-07-30T04:20:04;15.80;99.90
14985;DHT22;7588;62.368;25.902;2023-07-30T04:22:31;15.90;99.90
14985;DHT22;7588;62.368;25.902;2023-07-30T04:24:56;16.00;99.90
14985;DHT22;7588;62.368;25.902;2023-07-30T04:27:22;16.00;99.90
14985;DHT22;7588;62.368;25.902;2023-07-30T04:29:48;16.00;99.90
14985;DHT22;7588;62.368;25.902;2023-07-30T04:32:14;16.20;99.90
14985;DHT22;7588;62.368;25.902;2023-07-30T04:34:40;16.30;99.90
14985;DHT22;7588;62.368;25.902;2023-07-30T04:37:06;16.60;99.90
14985;DHT22;7588;62.368;25.902;2023-07-30T04:39:35;16.90;99.90
14985;DHT22;7588;62.368;25.902;2023-07-30T04:42:00;17.50;99.90
14985;DHT22;7588;62.368;25.902;2023-07-30T04:44:26;17.90;99.90
14985;DHT22;7588;62.368;25.902;2023-07-30T04:46:52;18.40;99.90
14985;DHT22;7588;62.368;25.902;2023-07-30T04:49:17;19.10;99.90
14985;DHT22;7588;62.368;25.902;2023-07-30T04:51:43;20.00;99.90
14985;DHT22;7588;62.368;25.902;2023-07-30T04:54:09;20.90;99.90
14985;DHT22;7588;62.368;25.902;2023-07-30T04:56:34;21.20;99.90
14985;DHT22;7588;62.368;25.902;2023-07-30T04:59:01;21.00;99.90
14985;DHT22;7588;62.368;25.902;2023-07-30T05:01:27;21.30;99.90
14985;DHT22;7588;62.368;25.902;2023-07-30T05:03:53;21.20;99.90
14985;DHT22;7588;62.368;25.902;2023-07-30T05:06:18;21.20;99.90
14985;DHT22;7588;62.368;25.902;2023-07-30T05:08:44;20.60;99.90
14985;DHT22;7588;62.368;25.902;2023-07-30T05:11:10;20.00;99.90
14985;DHT22;7588;62.368;25.902;2023-07-30T05:13:35;19.60;99.90
14985;DHT22;7588;62.368;25.902;2023-07-30T05:16:01;19.10;99.90
14985;DHT22;7588;62.368;25.902;2023-07-30T05:18:27;18.80;99.90
14985;DHT22;7588;62.368;25.902;2023-07-30T05:20:53;18.60;99.90
14985;DHT22;7588;62.368;25.902;2023-07-30T05:23:19;18.90;99.90
14985;DHT22;7588;62.368;25.902;2023-07-30T05:25:45;19.30;99.90
14985;DHT22;7588;62.368;25.902;2023-07-30T05:28:11;19.40;99.90
14985;DHT22;7588;62.368;25.902;2023-07-30T05:30:37;18.90;99.90
14985;DHT22;7588;62.368;25.902;2023-07-30T05:33:03;18.50;99.90
14985;DHT22;7588;62.368;25.902;2023-07-30T05:35:28;18.20;99.90
14985;DHT22;7588;62.368;25.902;2023-07-30T05:37:54;18.00;99.90
14985;DHT22;7588;62.368;25.902;2023-07-30T05:40:21;17.70;99.90
14985;DHT22;7588;62.368;25.902;2023-07-30T05:42:46;17.90;99.90
14985;DHT22;7588;62.368;25.902;2023-07-30T05:45:12;17.80;99.90
14985;DHT22;7588;62.368;25.902;2023-07-30T05:47:38;17.90;99.90
14985;DHT22;7588;62.368;25.902;2023-07-30T05:50:04;18.10;99.90
14985;DHT22;7588;62.368;25.902;2023-07-30T05:52:30;18.30;99.90
14985;DHT22;7588;62.368;25.902;2023-07-30T05:54:56;18.30;99.90
14985;DHT22;7588;62.368;25.902;2023-07-30T05:57:22;18.60;99.90
14985;DHT22;7588;62.368;25.902;2023-07-30T05:59:47;18.70;99.90
14985;DHT22;7588;62.368;25.902;2023-07-30T06:02:13;18.50;99.90
14985;DHT22;7588;62.368;25.902;2023-07-30T06:04:39;18.30;99.90
14985;DHT22;7588;62.368;25.902;2023-07-30T06:07:05;18.20;99.90
14985;DHT22;7588;62.368;25.902;2023-07-30T06:09:31;18.30;99.90
14985;DHT22;7588;62.368;25.902;2023-07-30T06:11:57;18.40;99.90
14985;DHT22;7588;62.368;25.902;2023-07-30T06:14:26;18.30;99.90
14985;DHT22;7588;62.368;25.902;2023-07-30T06:16:53;18.20;99.90
14985;DHT22;7588;62.368;25.902;2023-07-30T06:19:19;18.30;99.90
14985;DHT22;7588;62.368;25.902;2023-07-30T06:21:45;18.60;99.90
14985;DHT22;7588;62.368;25.902;2023-07-30T06:24:10;19.00;99.90
14985;DHT22;7588;62.368;25.902;2023-07-30T06:26:36;19.90;99.90
14985;DHT22;7588;62.368;25.902;2023-07-30T06:29:03;20.70;99.90
14985;DHT22;7588;62.368;25.902;2023-07-30T06:31:29;20.90;99.90
14985;DHT22;7588;62.368;25.902;2023-07-30T06:33:55;20.50;99.90
14985;DHT22;7588;62.368;25.902;2023-07-30T06:36:21;20.00;99.90
14985;DHT22;7588;62.368;25.902;2023-07-30T06:38:47;19.70;99.90
14985;DHT22;7588;62.368;25.902;2023-07-30T06:41:12;19.60;99.90
14985;DHT22;7588;62.368;25.902;2023-07-30T06:43:38;19.70;99.90
14985;DHT22;7588;62.368;25.902;2023-07-30T06:46:04;20.10;99.90
14985;DHT22;7588;62.368;25.902;2023-07-30T06:48:30;20.30;99.90
14985;DHT22;7588;62.368;25.902;2023-07-30T06:50:56;20.70;99.90
14985;DHT22;7588;62.368;25.902;2023-07-30T06:53:22;21.10;99.90
14985;DHT22;7588;62.368;25.902;2023-07-30T06:55:48;21.50;99.90
14985;DHT22;7588;62.368;25.902;2023-07-30T06:58:13;21.80;99.90
14985;DHT22;7588;62.368;25.902;2023-07-30T07:00:39;21.90;99.90
14985;DHT22;7588;62.368;25.902;2023-07-30T07:03:05;21.50;99.90
14985;DHT22;7588;62.368;25.902;2023-07-30T07:05:31;21.20;99.90
14985;DHT22;7588;62.368;25.902;2023-07-30T07:07:56;21.10;99.90
14985;DHT22;7588;62.368;25.902;2023-07-30T07:10:22;21.50;99.90
14985;DHT22;7588;62.368;25.902;2023-07-30T07:12:48;21.90;99.90
14985;DHT22;7588;62.368;25.902;2023-07-30T07:15:14;21.80;99.90
14985;DHT22;7588;62.368;25.902;2023-07-30T07:17:39;21.90;99.90
14985;DHT22;7588;62.368;25.902;2023-07-30T07:20:07;21.80;99.90
14985;DHT22;7588;62.368;25.902;2023-07-30T07:22:33;21.90;99.90
14985;DHT22;7588;62.368;25.902;2023-07-30T07:24:59;22.10;99.90
14985;DHT22;7588;62.368;25.902;2023-07-30T07:27:25;22.70;99.90
14985;DHT22;7588;62.368;25.902;2023-07-30T07:29:51;23.00;99.90
14985;DHT22;7588;62.368;25.902;2023-07-30T07:32:18;23.20;99.90
14985;DHT22;7588;62.368;25.902;2023-07-30T07:34:47;23.50;99.90
14985;DHT22;7588;62.368;25.902;2023-07-30T07:37:14;23.80;99.90
14985;DHT22;7588;62.368;25.902;2023-07-30T07:39:43;23.70;99.90
14985;DHT22;7588;62.368;25.902;2023-07-30T07:42:09;23.80;99.90
14985;DHT22;7588;62.368;25.902;2023-07-30T07:44:35;23.40;99.90
14985;DHT22;7588;62.368;25.902;2023-07-30T07:47:01;22.90;99.90
14985;DHT22;7588;62.368;25.902;2023-07-30T07:49:27;22.70;99.90
14985;DHT22;7588;62.368;25.902;2023-07-30T07:51:53;22.70;99.90
14985;DHT22;7588;62.368;25.902;2023-07-30T07:54:18;23.00;99.90
14985;DHT22;7588;62.368;25.902;2023-07-30T07:56:44;23.20;99.90
14985;DHT22;7588;62.368;25.902;2023-07-30T07:59:10;23.20;99.90
14985;DHT22;7588;62.368;25.902;2023-07-30T08:01:35;23.20;99.90
14985;DHT22;7588;62.368;25.902;2023-07-30T08:04:01;23.40;99.90
14985;DHT22;7588;62.368;25.902;2023-07-30T08:06:27;23.60;99.90
14985;DHT22;7588;62.368;25.902;2023-07-30T08:08:53;23.50;99.90
14985;DHT22;7588;62.368;25.902;2023-07-30T08:11:19;23.50;99.90
14985;DHT22;7588;62.368;25.902;2023-07-30T08:13:44;23.30;99.90
14985;DHT22;7588;62.368;25.902;2023-07-30T08:16:11;23.30;99.90
14985;DHT22;7588;62.368;25.902;2023-07-30T08:18:37;23.10;99.90
14985;DHT22;7588;62.368;25.902;2023-07-30T08:21:03;23.00;99.90
14985;DHT22;7588;62.368;25.902;2023-07-30T08:23:29;23.10;99.90
14985;DHT22;7588;62.368;25.902;2023-07-30T08:25:55;23.30;99.90
14985;DHT22;7588;62.368;25.902;2023-07-30T08:28:21;23.50;99.90
14985;DHT22;7588;62.368;25.902;2023-07-30T08:30:47;23.40;99.90
14985;DHT22;7588;62.368;25.902;2023-07-30T08:33:12;23.60;99.90
14985;DHT22;7588;62.368;25.902;2023-07-30T08:35:38;23.80;99.90
14985;DHT22;7588;62.368;25.902;2023-07-30T08:38:04;24.00;99.90
14985;DHT22;7588;62.368;25.902;2023-07-30T08:40:29;24.20;99.90
14985;DHT22;7588;62.368;25.902;2023-07-30T08:42:56;24.40;99.90
14985;DHT22;7588;62.368;25.902;2023-07-30T08:45:22;24.30;99.90
14985;DHT22;7588;62.368;25.902;2023-07-30T08:47:48;24.00;99.90
14985;DHT22;7588;62.368;25.902;2023-07-30T08:50:14;23.80;99.90
14985;DHT22;7588;62.368;25.902;2023-07-30T08:52:40;23.90;99.90
14985;DHT22;7588;62.368;25.902;2023-07-30T08:55:07;24.10;99.90
14985;DHT22;7588;62.368;25.902;2023-07-30T08:57:33;24.30;99.90
14985;DHT22;7588;62.368;25.902;2023-07-30T09:00:05;24.50;99.90
14985;DHT22;7588;62.368;25.902;2023-07-30T09:02:47;24.80;99.90
14985;DHT22;7588;62.368;25.902;2023-07-30T09:05:13;25.00;99.90
14985;DHT22;7588;62.368;25.902;2023-07-30T09:07:39;25.30;99.90
14985;DHT22;7588;62.368;25.902;2023-07-30T09:10:06;25.30;99.90
14985;DHT22;7588;62.368;25.902;2023-07-30T09:12:32;25.40;99.90
14985;DHT22;7588;62.368;25.902;2023-07-30T09:14:58;25.20;99.90
14985;DHT22;7588;62.368;25.902;2023-07-30T09:17:24;25.30;99.90
14985;DHT22;7588;62.368;25.902;2023-07-30T09:19:52;25.10;99.90
14985;DHT22;7588;62.368;25.902;2023-07-30T09:22:35;24.90;99.90
14985;DHT22;7588;62.368;25.902;2023-07-30T09:25:04;25.00;99.90
14985;DHT22;7588;62.368;25.902;2023-07-30T09:27:31;25.00;99.90
14985;DHT22;7588;62.368;25.902;2023-07-30T09:29:59;25.10;99.90
14985;DHT22;7588;62.368;25.902;2023-07-30T09:32:34;25.30;99.90
14985;DHT22;7588;62.368;25.902;2023-07-30T09:35:07;25.00;99.90
14985;DHT22;7588;62.368;25.902;2023-07-30T09:37:41;25.10;99.90
14985;DHT22;7588;62.368;25.902;2023-07-30T09:40:09;25.20;99.90
14985;DHT22;7588;62.368;25.902;2023-07-30T09:42:36;25.30;99.90
14985;DHT22;7588;62.368;25.902;2023-07-30T09:45:05;25.50;99.90
14985;DHT22;7588;62.368;25.902;2023-07-30T09:47:37;25.50;99.90
14985;DHT22;7588;62.368;25.902;2023-07-30T09:50:03;25.70;99.90
14985;DHT22;7588;62.368;25.902;2023-07-30T09:52:30;25.60;99.90
14985;DHT22;7588;62.368;25.902;2023-07-30T09:54:57;25.20;99.90
14985;DHT22;7588;62.368;25.902;2023-07-30T09:57:24;25.00;99.90
14985;DHT22;7588;62.368;25.902;2023-07-30T09:59:49;24.50;99.90
14985;DHT22;7588;62.368;25.902;2023-07-30T10:02:16;24.60;99.90
14985;DHT22;7588;62.368;25.902;2023-07-30T10:04:43;24.60;99.90
14985;DHT22;7588;62.368;25.902;2023-07-30T10:07:20;25.10;99.90
14985;DHT22;7588;62.368;25.902;2023-07-30T10:09:48;25.30;99.90
14985;DHT22;7588;62.368;25.902;2023-07-30T10:12:18;25.10;99.90
14985;DHT22;7588;62.368;25.902;2023-07-30T10:14:45;25.00;99.90
14985;DHT22;7588;62.368;25.902;2023-07-30T10:17:12;25.10;99.90
14985;DHT22;7588;62.368;25.902;2023-07-30T10:19:38;25.50;99.90
14985;DHT22;7588;62.368;25.902;2023-07-30T10:24:39;25.70;99.90
14985;DHT22;7588;62.368;25.902;2023-07-30T10:27:08;25.20;99.90
14985;DHT22;7588;62.368;25.902;2023-07-30T10:29:39;24.80;99.90
14985;DHT22;7588;62.368;25.902;2023-07-30T10:32:07;24.80;99.90
14985;DHT22;7588;62.368;25.902;2023-07-30T10:34:46;25.20;99.90
14985;DHT22;7588;62.368;25.902;2023-07-30T10:37:20;26.00;99.90
14985;DHT22;7588;62.368;25.902;2023-07-30T10:39:49;26.70;99.60
14985;DHT22;7588;62.368;25.902;2023-07-30T10:42:15;27.40;97.60
14985;DHT22;7588;62.368;25.902;2023-07-30T10:44:44;27.70;97.20
14985;DHT22;7588;62.368;25.902;2023-07-30T10:47:10;28.10;97.70
14985;DHT22;7588;62.368;25.902;2023-07-30T10:49:37;28.20;95.30
14985;DHT22;7588;62.368;25.902;2023-07-30T10:52:04;28.40;94.90
14985;DHT22;7588;62.368;25.902;2023-07-30T10:54:36;28.80;94.80
14985;DHT22;7588;62.368;25.902;2023-07-30T10:57:05;29.00;95.00
14985;DHT22;7588;62.368;25.902;2023-07-30T10:59:35;29.00;95.00
14985;DHT22;7588;62.368;25.902;2023-07-30T11:02:02;29.00;94.40
14985;DHT22;7588;62.368;25.902;2023-07-30T11:04:28;29.10;93.10
14985;DHT22;7588;62.368;25.902;2023-07-30T11:06:53;29.40;93.70
14985;DHT22;7588;62.368;25.902;2023-07-30T11:09:26;29.10;92.80
14985;DHT22;7588;62.368;25.902;2023-07-30T11:11:54;28.40;92.50
14985;DHT22;7588;62.368;25.902;2023-07-30T11:14:22;27.90;93.40
14985;DHT22;7588;62.368;25.902;2023-07-30T11:16:56;28.10;94.30
14985;DHT22;7588;62.368;25.902;2023-07-30T11:19:24;28.30;93.00
14985;DHT22;7588;62.368;25.902;2023-07-30T11:21:51;28.60;95.90
14985;DHT22;7588;62.368;25.902;2023-07-30T11:24:17;28.90;94.60
14985;DHT22;7588;62.368;25.902;2023-07-30T11:26:43;28.80;92.00
14985;DHT22;7588;62.368;25.902;2023-07-30T11:29:19;28.30;93.00
14985;DHT22;7588;62.368;25.902;2023-07-30T11:31:46;28.10;94.70
14985;DHT22;7588;62.368;25.902;2023-07-30T11:34:16;27.70;93.30
14985;DHT22;7588;62.368;25.902;2023-07-30T11:36:44;27.10;92.90
14985;DHT22;7588;62.368;25.902;2023-07-30T11:39:10;27.00;93.40
14985;DHT22;7588;62.368;25.902;2023-07-30T11:41:37;27.00;94.60
14985;DHT22;7588;62.368;25.902;2023-07-30T11:44:04;27.90;94.50
14985;DHT22;7588;62.368;25.902;2023-07-30T11:46:29;28.80;92.70
14985;DHT22;7588;62.368;25.902;2023-07-30T11:49:15;29.20;91.60
14985;DHT22;7588;62.368;25.902;2023-07-30T11:51:42;29.00;92.30
14985;DHT22;7588;62.368;25.902;2023-07-30T11:54:21;28.80;94.10
14985;DHT22;7588;62.368;25.902;2023-07-30T11:56:54;28.80;91.00
14985;DHT22;7588;62.368;25.902;2023-07-30T11:59:20;28.60;91.20
14985;DHT22;7588;62.368;25.902;2023-07-30T12:01:47;28.60;88.70
14985;DHT22;7588;62.368;25.902;2023-07-30T12:04:13;28.70;90.70
14985;DHT22;7588;62.368;25.902;2023-07-30T12:06:43;29.00;87.40
14985;DHT22;7588;62.368;25.902;2023-07-30T12:14:15;26.90;93.60
14985;DHT22;7588;62.368;25.902;2023-07-30T12:16:41;26.50;94.50
14985;DHT22;7588;62.368;25.902;2023-07-30T12:19:07;26.00;96.50
14985;DHT22;7588;62.368;25.902;2023-07-30T12:21:32;25.60;97.60
14985;DHT22;7588;62.368;25.902;2023-07-30T12:23:58;24.90;99.90
14985;DHT22;7588;62.368;25.902;2023-07-30T12:26:24;24.30;99.90
14985;DHT22;7588;62.368;25.902;2023-07-30T12:28:49;23.80;99.90
14985;DHT22;7588;62.368;25.902;2023-07-30T12:31:15;23.40;99.90
14985;DHT22;7588;62.368;25.902;2023-07-30T12:33:41;23.10;99.90
14985;DHT22;7588;62.368;25.902;2023-07-30T12:36:06;22.80;99.90
14985;DHT22;7588;62.368;25.902;2023-07-30T12:38:32;22.40;99.90
14985;DHT22;7588;62.368;25.902;2023-07-30T12:40:58;22.10;99.90
14985;DHT22;7588;62.368;25.902;2023-07-30T12:43:23;21.70;99.90
14985;DHT22;7588;62.368;25.902;2023-07-30T12:45:49;21.30;99.90
14985;DHT22;7588;62.368;25.902;2023-07-30T12:48:15;20.80;99.90
14985;DHT22;7588;62.368;25.902;2023-07-30T12:50:41;20.40;99.90
14985;DHT22;7588;62.368;25.902;2023-07-30T12:53:06;20.30;99.90
14985;DHT22;7588;62.368;25.902;2023-07-30T12:55:32;20.10;99.90
14985;DHT22;7588;62.368;25.902;2023-07-30T12:57:58;19.90;99.90
14985;DHT22;7588;62.368;25.902;2023-07-30T13:00:24;19.90;99.90
14985;DHT22;7588;62.368;25.902;2023-07-30T13:02:49;20.10;99.90
14985;DHT22;7588;62.368;25.902;2023-07-30T13:05:20;20.20;99.90
14985;DHT22;7588;62.368;25.902;2023-07-30T13:07:46;20.30;99.90
14985;DHT22;7588;62.368;25.902;2023-07-30T13:10:12;20.50;99.90
14985;DHT22;7588;62.368;25.902;2023-07-30T13:12:38;20.80;99.90
14985;DHT22;7588;62.368;25.902;2023-07-30T13:15:04;21.00;99.90
14985;DHT22;7588;62.368;25.902;2023-07-30T13:17:30;21.20;99.90
14985;DHT22;7588;62.368;25.902;2023-07-30T13:19:57;21.40;99.90
14985;DHT22;7588;62.368;25.902;2023-07-30T13:22:23;21.60;99.90
14985;DHT22;7588;62.368;25.902;2023-07-30T13:24:48;21.80;99.90
14985;DHT22;7588;62.368;25.902;2023-07-30T13:27:14;22.10;99.90
14985;DHT22;7588;62.368;25.902;2023-07-30T13:29:40;22.20;99.90
14985;DHT22;7588;62.368;25.902;2023-07-30T13:32:06;22.20;99.90
14985;DHT22;7588;62.368;25.902;2023-07-30T13:34:32;22.20;99.90
14985;DHT22;7588;62.368;25.902;2023-07-30T13:36:57;22.20;99.90
14985;DHT22;7588;62.368;25.902;2023-07-30T13:39:23;22.20;99.90
14985;DHT22;7588;62.368;25.902;2023-07-30T13:41:49;22.40;99.90
14985;DHT22;7588;62.368;25.902;2023-07-30T13:44:14;22.50;99.90
14985;DHT22;7588;62.368;25.902;2023-07-30T13:46:40;22.70;99.90
14985;DHT22;7588;62.368;25.902;2023-07-30T13:49:06;22.70;99.90
14985;DHT22;7588;62.368;25.902;2023-07-30T13:51:33;22.70;99.90
14985;DHT22;7588;62.368;25.902;2023-07-30T13:53:59;22.70;99.90
14985;DHT22;7588;62.368;25.902;2023-07-30T13:56:26;22.70;99.90
14985;DHT22;7588;62.368;25.902;2023-07-30T13:58:52;22.70;99.90
14985;DHT22;7588;62.368;25.902;2023-07-30T14:01:17;22.80;99.90
14985;DHT22;7588;62.368;25.902;2023-07-30T14:03:43;22.80;99.90
14985;DHT22;7588;62.368;25.902;2023-07-30T14:06:09;22.70;99.90
14985;DHT22;7588;62.368;25.902;2023-07-30T14:08:37;22.70;99.90
14985;DHT22;7588;62.368;25.902;2023-07-30T14:11:03;22.60;99.90
14985;DHT22;7588;62.368;25.902;2023-07-30T14:13:29;22.50;99.90
14985;DHT22;7588;62.368;25.902;2023-07-30T14:15:54;22.30;99.90
14985;DHT22;7588;62.368;25.902;2023-07-30T14:18:21;22.20;99.90
14985;DHT22;7588;62.368;25.902;2023-07-30T14:20:47;22.00;99.90
14985;DHT22;7588;62.368;25.902;2023-07-30T14:23:12;22.10;99.90
14985;DHT22;7588;62.368;25.902;2023-07-30T14:25:38;22.00;99.90
14985;DHT22;7588;62.368;25.902;2023-07-30T14:28:04;21.90;99.90
14985;DHT22;7588;62.368;25.902;2023-07-30T14:30:30;21.80;99.90
14985;DHT22;7588;62.368;25.902;2023-07-30T14:32:56;21.60;99.90
14985;DHT22;7588;62.368;25.902;2023-07-30T14:35:22;21.50;99.90
14985;DHT22;7588;62.368;25.902;2023-07-30T14:37:48;21.30;99.90
14985;DHT22;7588;62.368;25.902;2023-07-30T14:40:15;21.20;99.90
14985;DHT22;7588;62.368;25.902;2023-07-30T14:42:40;21.00;99.90
14985;DHT22;7588;62.368;25.902;2023-07-30T14:45:07;20.80;99.90
14985;DHT22;7588;62.368;25.902;2023-07-30T14:47:33;20.60;99.90
14985;DHT22;7588;62.368;25.902;2023-07-30T14:49:59;20.40;99.90
14985;DHT22;7588;62.368;25.902;2023-07-30T14:52:25;20.30;99.90
14985;DHT22;7588;62.368;25.902;2023-07-30T14:54:51;20.20;99.90
14985;DHT22;7588;62.368;25.902;2023-07-30T14:57:17;20.10;99.90
14985;DHT22;7588;62.368;25.902;2023-07-30T14:59:42;20.10;99.90
14985;DHT22;7588;62.368;25.902;2023-07-30T15:02:08;20.10;99.90
14985;DHT22;7588;62.368;25.902;2023-07-30T15:04:34;20.20;99.90
14985;DHT22;7588;62.368;25.902;2023-07-30T15:07:00;20.30;99.90
14985;DHT22;7588;62.368;25.902;2023-07-30T15:09:26;20.20;99.90
14985;DHT22;7588;62.368;25.902;2023-07-30T15:11:51;20.20;99.90
14985;DHT22;7588;62.368;25.902;2023-07-30T15:14:17;20.10;99.90
14985;DHT22;7588;62.368;25.902;2023-07-30T15:16:43;20.20;99.90
14985;DHT22;7588;62.368;25.902;2023-07-30T15:19:08;20.10;99.90
14985;DHT22;7588;62.368;25.902;2023-07-30T15:21:34;20.00;99.90
14985;DHT22;7588;62.368;25.902;2023-07-30T15:24:03;19.80;99.90
14985;DHT22;7588;62.368;25.902;2023-07-30T15:26:29;19.70;99.90
14985;DHT22;7588;62.368;25.902;2023-07-30T15:28:54;19.60;99.90
14985;DHT22;7588;62.368;25.902;2023-07-30T15:31:20;19.50;99.90
14985;DHT22;7588;62.368;25.902;2023-07-30T15:33:46;19.40;99.90
14985;DHT22;7588;62.368;25.902;2023-07-30T15:36:11;19.50;99.90